• Join FlightAware (Why Join?)
  • Login
  • US Flag 
07:11AM EST


 

Airport Tracker/Info


-or-


 

Live Flight TrackerFlight Track Log ✈ ACA854 ✈ 01-Sep-2013 ✈ CYVR - EGLL / LHR

Flight Track Log - Related Links

Times and Time Zones

All times are in EDT time to prevent confusion due to time zone crossing. See the ACA854 flight status page for this flight to view local times or setup timezone preferences in your user account.

Time Position Orientation Groundspeed Altitude Reporting Facility
EDT Latitude Longitude Course Direction KTS MPH feet Rate Location/Type
11:05PM 49.1860 -123.1720 99° East 184 212 200  Level FlightAware
11:05PM 49.1830 -123.1420 99° East 187 215 1,200 2,520 Climbing FlightAware
11:05PM 49.1790 -123.1080 100° East 189 217 2,300 2,520 Climbing FlightAware
11:06PM 49.1750 -123.0760 101° East 193 222 3,100 1,860 Climbing FlightAware
11:06PM 49.1710 -123.0490 103° East 197 227 3,700 1,320 Climbing FlightAware
11:07PM 49.1670 -123.0150 100° East 225 259 4,100 1,020 Climbing FlightAware
11:07PM 49.1640 -122.9870 99° East 247 284 4,400 1,440 Climbing FlightAware
11:07PM 49.1720 -122.9390 76° East 271 312 5,200 1,920 Climbing FlightAware
11:07PM 49.1780 -122.9280 50° Northeast 274 315 5,600 2,580 Climbing FlightAware
11:08PM 49.1870 -122.9180 36° Northeast 281 323 5,900 2,100 Climbing FlightAware
11:08PM 49.2110 -122.8980 29° Northeast 294 338 6,600 1,740 Climbing FlightAware
11:08PM 49.2300 -122.8830 27° Northeast 300 345 7,100 2,040 Climbing FlightAware
11:09PM 49.2590 -122.8620 25° Northeast 309 356 7,900 2,580 Climbing FlightAware
11:09PM 49.2900 -122.8390 26° Northeast 312 359 8,900 2,400 Climbing FlightAware
11:10PM 49.3340 -122.8070 25° Northeast 316 364 10,300 1,740 Climbing FlightAware
11:10PM 49.3910 -122.7660 25° Northeast 358 412 11,100 1,200 Climbing FlightAware
11:11PM 49.4430 -122.7190 30° Northeast 390 449 11,800 1,560 Climbing FlightAware
11:11PM 49.4850 -122.6660 39° Northeast 402 463 12,900 2,760 Climbing FlightAware
11:12PM 49.5330 -122.6040 40° Northeast 400 460 14,800 2,280 Climbing FlightAware
11:12PM 49.5820 -122.5390 41° Northeast 433 498 15,400 1,560 Climbing FlightAware
11:13PM 49.6440 -122.4580 40° Northeast 449 517 16,800 2,280 Climbing FlightAware
11:14PM 49.7030 -122.3820 40° Northeast 457 526 18,300 2,220 Climbing FlightAware
11:14PM 49.7550 -122.3150 40° Northeast 466 536 19,400 1,920 Climbing FlightAware
11:15PM 49.8160 -122.2360 40° Northeast 479 551 20,500 1,800 Climbing FlightAware
11:15PM 49.8760 -122.1590 40° Northeast 491 565 21,500 1,740 Climbing FlightAware
11:16PM 49.9390 -122.0750 41° Northeast 500 575 22,600 1,800 Climbing FlightAware
11:17PM 50.0030 -121.9920 40° Northeast 507 583 23,700 1,680 Climbing FlightAware
11:17PM 50.0800 -121.8900 40° Northeast 519 597 24,800 1,620 Climbing FlightAware
11:18PM 50.1350 -121.8180 40° Northeast 524 603 25,700 1,620 Climbing FlightAware
11:18PM 50.2060 -121.7230 41° Northeast 532 612 26,700 1,380 Climbing FlightAware
11:19PM 50.2650 -121.6440 41° Northeast 539 620 27,500 1,380 Climbing FlightAware
11:20PM 50.3620 -121.5160 40° Northeast 550 633 28,600 1,500 Climbing FlightAware
11:20PM 50.4270 -121.4270 41° Northeast 555 639 29,400 1,260 Climbing FlightAware
11:21PM 50.4860 -121.3480 40° Northeast 560 644 30,000 1,380 Climbing FlightAware
11:21PM 50.5360 -121.2810 40° Northeast 558 642 30,700 1,440 Climbing FlightAware
11:22PM 50.6140 -121.1750 41° Northeast 560 644 31,600 1,380 Climbing FlightAware
11:22PM 50.6710 -121.0970 41° Northeast 561 646 32,300 1,140 Climbing FlightAware
11:23PM 50.7450 -120.9960 41° Northeast 563 648 33,000 540 Climbing FlightAware
11:24PM 50.8220 -120.8910 41° Northeast 561 646 33,000  Level FlightAware
11:24PM 50.8940 -120.7900 41° Northeast 561 646 33,000  Level FlightAware
11:25PM 50.9570 -120.7040 41° Northeast 562 647 33,000  Level FlightAware
11:25PM 51.0170 -120.6200 41° Northeast 561 646 33,000  Level FlightAware
11:26PM 51.0970 -120.5080 41° Northeast 563 648 33,000  Level FlightAware
11:27PM 51.1530 -120.4300 41° Northeast 563 648 33,000  Level FlightAware
11:27PM 51.2260 -120.3280 41° Northeast 563 648 33,000  Level FlightAware
11:28PM 51.2950 -120.2300 42° Northeast 563 648 33,000  Level FlightAware
11:28PM 51.3700 -120.1230 42° Northeast 562 647 33,000  Level FlightAware
11:29PM 51.4320 -120.0340 42° Northeast 561 646 33,000  Level FlightAware
11:30PM 51.5130 -119.9190 41° Northeast 562 647 33,000  Level FlightAware
11:30PM 51.5760 -119.8280 42° Northeast 562 647 33,000  Level FlightAware
11:31PM 51.6370 -119.7400 42° Northeast 562 647 33,000  Level FlightAware
11:32PM 51.7300 -119.6060 42° Northeast 562 647 33,000  Level FlightAware
11:32PM 51.7850 -119.5250 42° Northeast 562 647 33,000  Level FlightAware
11:33PM 51.8480 -119.4340 42° Northeast 562 647 33,000  Level FlightAware
11:34PM 51.9150 -119.3350 42° Northeast 562 647 33,000  Level FlightAware
11:34PM 52.0220 -119.1770 42° Northeast 33,000  Level FlightAware
11:37PM 52.3000 -118.7610 42° Northeast 551 634 33,000  Level FlightAware
11:37PM 52.3560 -118.6760 43° Northeast 551 634 33,000  Level FlightAware
11:38PM 52.4260 -118.5700 43° Northeast 551 634 33,000  Level FlightAware
11:38PM 52.4970 -118.4610 43° Northeast 551 634 33,000  Level FlightAware
11:39PM 52.5530 -118.3760 43° Northeast 551 634 33,000  Level FlightAware
11:40PM 52.6570 -118.2160 43° Northeast 556 640 33,000  Level FlightAware
11:40PM 52.7230 -118.1150 43° Northeast 556 640 33,000  Level FlightAware
11:41PM 52.7880 -118.0120 44° Northeast 557 641 33,000  Level FlightAware
11:41PM 52.8530 -117.9110 43° Northeast 557 641 33,000  Level FlightAware
11:42PM 52.9180 -117.8090 43° Northeast 557 641 33,000  Level FlightAware
11:43PM 52.9750 -117.7200 43° Northeast 557 641 33,000  Level FlightAware
11:43PM 53.0490 -117.6030 44° Northeast 555 639 33,000  Level FlightAware
11:44PM 53.1140 -117.5000 44° Northeast 556 640 33,000  Level FlightAware
11:44PM 53.1780 -117.3970 44° Northeast 555 639 33,000  Level FlightAware
11:45PM 53.2440 -117.2920 44° Northeast 554 638 33,000  Level FlightAware
11:46PM 53.3180 -117.1730 44° Northeast 546 628 33,000  Level FlightAware
11:46PM 53.3810 -117.0700 44° Northeast 545 627 33,000  Level FlightAware
11:47PM 53.4450 -116.9670 44° Northeast 545 627 33,000  Level FlightAware
11:47PM 53.5080 -116.8630 44° Northeast 544 626 33,000  Level FlightAware
11:48PM 53.5810 -116.7440 44° Northeast 544 626 33,000  Level FlightAware
11:49PM 53.6620 -116.6110 44° Northeast 542 624 33,000  Level FlightAware
11:49PM 53.7250 -116.5060 45° Northeast 543 625 33,000  Level FlightAware
11:50PM 53.7890 -116.3990 45° Northeast 544 626 33,000  Level FlightAware
11:51PM 53.8520 -116.2950 44° Northeast 545 627 33,000  Level FlightAware
11:51PM 53.9150 -116.1890 45° Northeast 545 627 33,000  Level FlightAware
11:52PM 53.9870 -116.0670 45° Northeast 546 628 33,000  Level FlightAware
11:52PM 54.0500 -115.9610 45° Northeast 550 633 33,000  Level FlightAware
11:53PM 54.1130 -115.8520 45° Northeast 550 633 33,000  Level FlightAware
11:53PM 54.1660 -115.7620 45° Northeast 549 632 33,000  Level FlightAware
11:54PM 54.2380 -115.6390 45° Northeast 548 631 33,000  Level FlightAware
11:55PM 54.2920 -115.5480 45° Northeast 548 631 33,000  Level FlightAware
11:55PM 54.3460 -115.4560 45° Northeast 548 631 33,000  Level FlightAware
11:56PM 54.4170 -115.3330 45° Northeast 548 631 33,000  Level FlightAware
11:56PM 54.4710 -115.2400 45° Northeast 547 629 33,000  Level FlightAware
11:57PM 54.5420 -115.1160 45° Northeast 547 629 33,000  Level FlightAware
11:58PM 54.6040 -115.0070 45° Northeast 546 628 33,000  Level FlightAware
11:58PM 54.6740 -114.8840 45° Northeast 540 621 33,000  Level FlightAware
11:59PM 54.7440 -114.7600 46° Northeast 541 623 33,000  Level FlightAware
11:59PM 54.8070 -114.6480 46° Northeast 548 631 33,000  Level FlightAware
12:00AM 54.8610 -114.5530 45° Northeast 543 625 33,000  Level FlightAware
12:01AM 54.9020 -114.4790 46° Northeast 542 624 33,000  Level FlightAware
12:01AM 54.9940 -114.3130 46° Northeast 548 631 33,000  Level FlightAware
12:02AM 55.0380 -114.2330 46° Northeast 548 631 33,000  Level FlightAware
12:02AM 55.1090 -114.1040 46° Northeast 548 631 33,000  Level FlightAware
12:03AM 55.1620 -114.0080 46° Northeast 548 631 33,000  Level FlightAware
12:03AM 55.2330 -113.8780 46° Northeast 546 628 33,000  Level FlightAware
12:04AM 55.2720 -113.8060 46° Northeast 546 628 33,000  Level FlightAware
12:05AM 55.3450 -113.6710 46° Northeast 545 627 33,000  Level FlightAware
12:05AM 55.4080 -113.5550 46° Northeast 546 628 33,000  Level FlightAware
12:06AM 55.5050 -113.3750 46° Northeast 546 628 33,000  Level FlightAware
12:07AM 55.5760 -113.2380 47° Northeast 546 628 33,000  Level FlightAware
12:08AM 55.6350 -113.1270 47° Northeast 546 628 33,000  Level FlightAware
12:08AM 55.6850 -113.0320 47° Northeast 546 628 33,000  Level FlightAware
12:09AM 55.7420 -112.9230 47° Northeast 546 628 33,000  Level FlightAware
12:11AM 55.9730 -112.4760 47° Northeast 547 629 33,000  Level FlightAware
12:12AM 56.0390 -112.3480 47° Northeast 547 629 33,000  Level FlightAware
12:12AM 56.0890 -112.2530 47° Northeast 547 629 33,000  Level FlightAware
12:13AM 56.1400 -112.1540 47° Northeast 547 629 33,000  Level FlightAware
12:13AM 56.1920 -112.0550 47° Northeast 547 629 33,000  Level FlightAware
12:15AM 56.3667 -111.7000 47° Northeast 540 621 33,000  Level Edmonton Center
12:16AM 56.4667 -111.4667 52° Northeast 540 621 33,000  Level Edmonton Center
12:17AM 56.5500 -111.2833 50° Northeast 540 621 33,000  Level Edmonton Center
12:18AM 56.6667 -111.0833 43° Northeast 530 610 33,000  Level Edmonton Center
12:19AM 56.7667 -110.8833 48° Northeast 530 610 33,000  Level Edmonton Center
12:20AM 56.8500 -110.6667 55° Northeast 530 610 33,000  Level Edmonton Center
12:21AM 56.9500 -110.4667 47° Northeast 530 610 33,000  Level Edmonton Center
12:22AM 57.0500 -110.2667 47° Northeast 530 610 33,000  Level Edmonton Center
12:23AM 57.1500 -110.0333 52° Northeast 530 610 33,000  Level Edmonton Center
12:24AM 57.2500 -109.8167 49° Northeast 540 621 33,000  Level Edmonton Center
12:25AM 57.3667 -109.6167 43° Northeast 540 621 33,000  Level Edmonton Center
12:26AM 57.4500 -109.4167 52° Northeast 540 621 33,000  Level Edmonton Center
12:27AM 57.5500 -109.2000 49° Northeast 540 621 33,000  Level Edmonton Center
12:28AM 57.6333 -108.9833 54° Northeast 530 610 33,000  Level Edmonton Center
12:29AM 57.7500 -108.7500 47° Northeast 530 610 33,000  Level Edmonton Center
12:30AM 57.8333 -108.5333 54° Northeast 530 610 33,000  Level Edmonton Center
12:31AM 57.9333 -108.3167 49° Northeast 530 610 33,000  Level Edmonton Center
12:32AM 58.0167 -108.1000 54° Northeast 530 610 33,000  Level Edmonton Center
12:33AM 58.1333 -107.8833 44° Northeast 530 610 33,000  Level Edmonton Center
12:34AM 58.2167 -107.6667 54° Northeast 530 610 33,000  Level Edmonton Center
12:35AM 58.3000 -107.4500 54° Northeast 530 610 33,000  Level Edmonton Center
12:36AM 58.4000 -107.2333 49° Northeast 530 610 33,000  Level Edmonton Center
12:37AM 58.4833 -107.0000 56° Northeast 530 610 33,000  Level Edmonton Center
12:38AM 58.5667 -106.7833 54° Northeast 530 610 33,000  Level Edmonton Center
12:39AM 58.6833 -106.5667 44° Northeast 530 610 33,000  Level Edmonton Center
12:40AM 58.7667 -106.3333 55° Northeast 530 610 33,000 120 Level Edmonton Center
12:41AM 58.8500 -106.1000 55° Northeast 520 598 33,300 360 Climbing Edmonton Center
12:42AM 58.9500 -105.8833 48° Northeast 520 598 33,800 300 Climbing Edmonton Center
12:43AM 59.0333 -105.6500 55° Northeast 520 598 34,000 60 Climbing Edmonton Center
12:44AM 59.1333 -105.4167 50° Northeast 520 598 34,000  Level Edmonton Center
12:45AM 59.2167 -105.1833 55° Northeast 510 587 34,000  Level Edmonton Center
12:46AM 59.3000 -104.9667 53° Northeast 510 587 34,000  Level Edmonton Center
12:47AM 59.3833 -104.7667 51° Northeast 510 587 34,000  Level Edmonton Center
12:48AM 59.4667 -104.4833 60° Northeast 510 587 34,000  Level Edmonton Center
12:49AM 59.5500 -104.2500 55° Northeast 510 587 34,000  Level Edmonton Center
12:50AM 59.6500 -104.0500 45° Northeast 510 587 34,000  Level Edmonton Center
12:51AM 59.7333 -103.8167 55° Northeast 510 587 34,000  Level Edmonton Center
12:52AM 59.8167 -103.5667 56° Northeast 510 587 34,000  Level Edmonton Center
12:53AM 59.9000 -103.3333 54° Northeast 510 587 34,000  Level Edmonton Center
12:54AM 59.9833 -103.1333 50° Northeast 510 587 34,000  Level Edmonton Center
12:55AM 60.0667 -102.8833 56° Northeast 500 575 34,000  Level Edmonton Center
12:56AM 60.1333 -102.6333 62° Northeast 510 587 34,000  Level Edmonton Center
12:57AM 60.2000 -102.4000 60° Northeast 510 587 34,000  Level Edmonton Center
12:58AM 60.3000 -102.1833 47° Northeast 500 575 34,000  Level Edmonton Center
12:59AM 60.3667 -101.9333 62° Northeast 500 575 34,000  Level Edmonton Center
01:00AM 60.4500 -101.6833 56° Northeast 500 575 34,000  Level Edmonton Center
01:01AM 60.5167 -101.4667 58° Northeast 500 575 34,000  Level Edmonton Center
01:02AM 60.6000 -101.1833 59° Northeast 510 587 34,000  Level Edmonton Center
01:03AM 60.6833 -100.9667 52° Northeast 500 575 34,000  Level Edmonton Center
01:04AM 60.7500 -100.7167 61° Northeast 500 575 34,000  Level Edmonton Center
01:05AM 60.8333 -100.4667 56° Northeast 500 575 34,000  Level Edmonton Center
01:06AM 60.9167 -100.2333 54° Northeast 500 575 34,000  Level Edmonton Center
01:07AM 60.9833 -99.9833 61° Northeast 500 575 34,000  Level Edmonton Center
01:08AM 61.0667 -99.7333 55° Northeast 500 575 34,000  Level Edmonton Center
01:09AM 61.1333 -99.5000 59° Northeast 500 575 34,000  Level Edmonton Center
01:10AM 61.2167 -99.2500 55° Northeast 500 575 34,000  Level Edmonton Center
01:11AM 61.2833 -98.9833 62° Northeast 500 575 34,000  Level Edmonton Center
01:12AM 61.3500 -98.7167 62° Northeast 500 575 34,000  Level Edmonton Center
01:13AM 61.4333 -98.4833 53° Northeast 510 587 34,000  Level Edmonton Center
01:14AM 61.5000 -98.2167 62° Northeast 510 587 34,000  Level Edmonton Center
01:15AM 61.5833 -97.9500 57° Northeast 500 575 34,000  Level Edmonton Center
01:16AM 61.6500 -97.7333 57° Northeast 500 575 34,000  Level Edmonton Center
01:17AM 61.7333 -97.4500 58° Northeast 500 575 34,000  Level Edmonton Center
01:18AM 61.8000 -97.1833 62° Northeast 510 587 34,000  Level Edmonton Center
01:19AM 61.8833 -96.9500 53° Northeast 510 587 34,000  Level Edmonton Center
01:20AM 61.9500 -96.6667 63° Northeast 510 587 34,000  Level Edmonton Center
01:21AM 62.0167 -96.4000 62° Northeast 510 587 34,000  Level Edmonton Center
01:22AM 62.0833 -96.1333 62° Northeast 510 587 34,000  Level Edmonton Center
01:23AM 62.1500 -95.8833 60° Northeast 510 587 34,000  Level Edmonton Center
01:24AM 62.2167 -95.6167 62° Northeast 510 587 34,000  Level Edmonton Center
01:25AM 62.2833 -95.3333 63° Northeast 510 587 34,000  Level Edmonton Center
01:26AM 62.3500 -95.0500 63° Northeast 510 587 34,000  Level Edmonton Center
01:27AM 62.4167 -94.7667 63° Northeast 510 587 34,000  Level Edmonton Center
01:28AM 62.5000 -94.4833 57° Northeast 510 587 34,000  Level Edmonton Center
01:29AM 62.5500 -94.2333 66° East 520 598 34,000  Level Edmonton Center
01:30AM 62.6333 -93.9500 57° Northeast 510 587 34,000  Level Edmonton Center
01:31AM 62.7000 -93.6667 63° Northeast 520 598 34,000  Level Edmonton Center
01:32AM 62.7667 -93.3833 63° Northeast 510 587 34,000  Level Edmonton Center
01:33AM 62.8167 -93.0833 70° East 510 587 34,000  Level Edmonton Center
01:34AM 62.9000 -92.8000 57° Northeast 520 598 34,000  Level Edmonton Center
01:35AM 62.9667 -92.5000 64° Northeast 520 598 34,000  Level Edmonton Center
01:36AM 63.0167 -92.2167 69° East 520 598 34,000  Level Edmonton Center
01:37AM 63.0833 -91.9167 64° Northeast 520 598 34,000  Level Edmonton Center
01:38AM 63.1333 -91.6167 70° East 520 598 34,000  Level Edmonton Center
01:39AM 63.2167 -91.3167 58° Northeast 520 598 34,000  Level Edmonton Center
01:40AM 63.2667 -91.0667 66° East 510 587 34,000  Level Edmonton Center
01:41AM 63.3333 -90.7667 64° Northeast 520 598 34,000  Level Edmonton Center
01:42AM 63.3833 -90.4667 69° East 520 598 34,000  Level Edmonton Center
01:43AM 63.4500 -90.1667 63° Northeast 520 598 34,000  Level Edmonton Center
01:44AM 63.5000 -89.8667 69° East 520 598 34,000  Level Edmonton Center
01:45AM 63.5667 -89.5500 65° Northeast 520 598 34,000  Level Edmonton Center
01:46AM 63.6167 -89.2500 69° East 510 587 34,000  Level Edmonton Center
01:47AM 63.6833 -88.9500 63° Northeast 510 587 34,000  Level Edmonton Center
01:48AM 63.7333 -88.6833 67° East 510 587 34,000  Level Edmonton Center
01:49AM 63.7833 -88.3667 70° East 510 587 34,000  Level Edmonton Center
01:50AM 63.8333 -88.0667 69° East 510 587 34,000  Level Edmonton Center
01:51AM 63.8833 -87.7500 70° East 510 587 34,000  Level Edmonton Center
01:52AM 63.9333 -87.4500 69° East 510 587 34,000  Level Edmonton Center
01:53AM 63.9833 -87.1333 70° East 510 587 34,000  Level Edmonton Center
01:54AM 64.0333 -86.8667 67° East 510 587 34,000  Level Edmonton Center
01:55AM 64.1000 -86.5333 65° Northeast 510 587 34,000  Level Edmonton Center
01:56AM 64.1500 -86.2167 70° East 510 587 34,000  Level Edmonton Center
01:57AM 64.2000 -85.9000 70° East 510 587 34,000  Level Edmonton Center
01:58AM 64.2500 -85.5833 70° East 510 587 34,000  Level Edmonton Center
01:59AM 64.2833 -85.2667 76° East 510 587 34,000  Level Edmonton Center
02:00AM 64.3333 -84.9500 70° East 510 587 34,000  Level Edmonton Center
02:01AM 64.3833 -84.6667 68° East 510 587 34,000  Level Edmonton Center
02:02AM 64.4333 -84.3500 70° East 510 587 34,000  Level Edmonton Center
02:03AM 64.4833 -84.0167 71° East 510 587 34,000  Level Edmonton Center
02:04AM 64.5333 -83.7000 70° East 510 587 34,000  Level Edmonton Center
02:05AM 64.5667 -83.3833 76° East 510 587 34,000  Level Edmonton Center
02:06AM 64.6000 -83.0500 77° East 510 587 34,000  Level Edmonton Center
02:07AM 64.6500 -82.7333 70° East 510 587 34,000  Level Edmonton Center
02:08AM 64.6833 -82.4000 77° East 510 587 34,000  Level Edmonton Center
02:09AM 64.7333 -82.1167 67° East 510 587 34,000  Level Edmonton Center
02:10AM 64.7667 -81.7833 77° East 510 587 34,000  Level Edmonton Center
02:11AM 64.8167 -81.4500 70° East 510 587 34,000  Level Edmonton Center
02:12AM 64.8500 -81.1167 77° East 510 587 34,000  Level Edmonton Center
02:13AM 64.8833 -80.7833 77° East 510 587 34,000  Level Edmonton Center
02:14AM 64.9333 -80.4833 68° East 510 587 34,000 120 Level Edmonton Center
02:15AM 64.9667 -80.1667 76° East 510 587 34,300 480 Climbing Edmonton Center
02:16AM 65.0000 -79.8333 77° East 500 575 35,000 300 Climbing Edmonton Center
02:17AM 65.0333 -79.5333 75° East 500 575 35,000  Level Edmonton Center
02:18AM 65.0833 -79.1833 71° East 500 575 35,000  Level Edmonton Center
02:19AM 65.1167 -78.8833 75° East 500 575 35,000  Level Edmonton Center
02:20AM 65.1667 -78.5833 68° East 500 575 35,000  Level Edmonton Center
02:21AM 65.2000 -78.2333 77° East 500 575 35,000  Level Edmonton Center
02:22AM 65.2333 -77.9333 75° East 500 575 35,000  Level Edmonton Center
02:23AM 65.2833 -77.6167 69° East 500 575 35,000  Level Edmonton Center
02:24AM 65.3167 -77.2833 76° East 500 575 35,000  Level Edmonton Center
02:25AM 65.3500 -76.9833 75° East 500 575 35,000  Level Edmonton Center
02:26AM 65.4000 -76.6167 72° East 500 575 35,000  Level Edmonton Center
02:27AM 65.4167 -76.3167 82° East 500 575 35,000  Level Edmonton Center
02:28AM 65.4667 -76.0000 69° East 500 575 35,000  Level Edmonton Center
02:29AM 65.5000 -75.6500 77° East 500 575 35,000  Level Edmonton Center
02:30AM 65.5333 -75.3500 75° East 500 575 35,000  Level Edmonton Center
02:31AM 65.5667 -75.0167 76° East 500 575 35,000  Level Edmonton Center
02:32AM 65.5833 -74.6833 83° East 500 575 35,000  Level Edmonton Center
02:33AM 65.6333 -74.3500 70° East 500 575 35,000  Level Edmonton Center
02:34AM 65.6667 -74.0333 76° East 500 575 35,000  Level Edmonton Center
02:35AM 65.6833 -73.7000 83° East 500 575 35,000  Level Edmonton Center
02:36AM 65.7167 -73.3667 76° East 500 575 35,000  Level Edmonton Center
02:37AM 65.7333 -73.0167 83° East 500 575 35,000  Level Edmonton Center
02:38AM 65.7833 -72.6833 70° East 500 575 35,000  Level Edmonton Center
02:39AM 65.8000 -72.3833 82° East 500 575 35,000  Level Edmonton Center
02:40AM 65.8167 -72.0333 83° East 500 575 35,000  Level Edmonton Center
02:41AM 65.8500 -71.7000 76° East 500 575 35,000  Level Edmonton Center
02:42AM 65.8833 -71.3833 75° East 510 587 35,000  Level Edmonton Center
02:43AM 65.9000 -71.0167 83° East 510 587 35,000  Level Edmonton Center
02:44AM 65.9333 -70.7000 75° East 510 587 35,000  Level Edmonton Center
02:45AM 65.9500 -70.3333 83° East 510 587 35,000  Level Edmonton Center
02:46AM 65.9667 -70.0167 82° East 510 587 35,000  Level Edmonton Center
02:47AM 65.9833 -69.6667 83° East 510 587 35,000  Level Edmonton Center
02:48AM 65.9833 -69.3167 90° East 510 587 35,000  Level Edmonton Center
02:49AM 66.0000 -68.9667 83° East 520 598 35,000  Level Edmonton Center
02:50AM 66.0167 -68.6000 83° East 520 598 35,000  Level Edmonton Center
02:51AM 66.0333 -68.2333 83° East 520 598 35,000  Level Edmonton Center
02:52AM 66.0333 -67.9500 90° East 510 587 35,000  Level Edmonton Center
02:53AM 66.0333 -67.5333 90° East 540 621 35,000  Level Edmonton Center
02:54AM 66.0333 -67.1833 90° East 520 598 35,000  Level Edmonton Center
02:55AM 66.0500 -66.8333 83° East 520 598 35,000  Level Edmonton Center
02:56AM 66.0500 -66.4833 90° East 510 587 35,000  Level Edmonton Center
02:57AM 66.0500 -66.1333 90° East 520 598 35,000  Level Edmonton Center
02:58AM 66.0500 -65.7833 90° East 520 598 35,000  Level Edmonton Center
02:59AM 66.0500 -65.4333 90° East 520 598 35,000  Level Edmonton Center
03:00AM 66.0500 -65.0833 90° East 520 598 35,000  Level Edmonton Center
03:01AM 66.0667 -64.7167 83° East 520 598 35,000  Level Edmonton Center
03:02AM 66.0667 -64.3667 90° East 520 598 35,000  Level Edmonton Center
03:03AM 66.0500 -64.0167 97° East 520 598 35,000  Level Edmonton Center
03:04AM 66.0500 -63.6667 90° East 520 598 35,000  Level Edmonton Center
03:05AM 66.0500 -63.3167 90° East 520 598 35,000  Level Edmonton Center
03:06AM 66.0500 -62.9667 90° East 530 610 35,000  Level Edmonton Center
03:07AM 66.0333 -62.6167 97° East 530 610 35,000  Level Edmonton Center
03:08AM 66.0333 -62.2667 90° East 520 598 35,000  Level Edmonton Center
03:09AM 66.0167 -61.9167 97° East 520 598 35,000  Level Edmonton Center
03:10AM 66.0333 -61.5500 83° East 520 598 35,000  Level Edmonton Center
03:11AM 66.0167 -61.2000 97° East 530 610 35,000  Level Edmonton Center
03:12AM 66.0000 -60.8500 97° East 530 610 35,000  Level Edmonton Center
03:13AM 66.0000 -60.5000 90° East 530 610 35,000  Level Edmonton Center
03:14AM 65.9667 -60.1333 102° East 530 610 35,000  Level Edmonton Center
03:15AM 65.9667 -59.7833 90° East 530 610 35,000  Level Edmonton Center
03:16AM 65.9500 -59.4333 97° East 530 610 35,000  Level Edmonton Center
03:17AM 65.9167 -59.0833 103° East 530 610 35,000  Level Edmonton Center
03:18AM 65.9000 -58.7500 97° East 520 598 35,000  Level Edmonton Center
03:19AM 65.8667 -58.4333 104° East 520 598 35,000  Level Edmonton Center
03:20AM 65.9000 -58.0167 79° East 520 598 35,000  Level Gander Center
03:21AM 65.8667 -57.7000 104° East 520 598 35,000  Level Gander Center
03:22AM 65.8500 -57.3833 97° East 520 598 35,000  Level Gander Center
03:23AM 65.8167 -56.9833 101° East 530 610 35,000  Level Gander Center
03:24AM 65.8000 -56.6667 97° East 530 610 35,000  Level Gander Center
03:25AM 65.7500 -56.3000 108° East 530 610 35,000  Level Gander Center
03:26AM 65.7167 -55.9500 103° East 530 610 35,000  Level Gander Center
03:27AM 65.7000 -55.6333 97° East 530 610 35,000  Level Gander Center
03:28AM 65.6667 -55.2833 103° East 520 598 35,000  Level Gander Center
03:29AM 65.6167 -54.9333 109° East 530 610 35,000  Level Gander Center
03:30AM 65.5833 -54.6167 104° East 520 598 35,000  Level Gander Center
03:31AM 65.5500 -54.2667 103° East 520 598 35,000  Level Gander Center
03:32AM 65.5333 -53.9167 96° East 520 598 35,000  Level Gander Center
03:33AM 65.4833 -53.6000 111° Southeast 520 598 35,000  Level Gander Center
03:34AM 65.4500 -53.3000 105° East 510 587 35,000  Level Gander Center
03:35AM 65.4167 -52.9500 103° East 510 587 35,000  Level Gander Center
03:37AM 65.3686 -52.5823 107° East  Level FlightAware Approximate
03:44AM 65.0520 -50.3420 108° East  Level FlightAware Approximate
03:45AM 65.0041 -50.0264 110° East  Level FlightAware Approximate
03:46AM 64.9804 -49.6959 99° East  Level FlightAware Approximate
03:47AM 64.9583 -49.3654 99° East  Level FlightAware Approximate
03:47AM 64.9470 -49.2050 99° East 512 589 35,000  Level FlightAware
03:48AM 64.9350 -49.0230 99° East 513 590 35,000  Level FlightAware
03:48AM 64.9220 -48.8400 99° East 513 590 35,000  Level FlightAware
03:49AM 64.9110 -48.6710 99° East 513 590 35,000  Level FlightAware
03:50AM 64.8990 -48.4970 99° East 513 590 35,000  Level FlightAware
03:50AM 64.8880 -48.3280 99° East 513 590 35,000  Level FlightAware
03:51AM 64.8770 -48.1590 99° East 513 590 35,000  Level FlightAware
03:51AM 64.8650 -47.9900 99° East 513 590 35,000  Level FlightAware
03:52AM 64.8540 -47.8210 99° East 513 590 35,000  Level FlightAware
03:53AM 64.8420 -47.6520 99° East 513 590 35,000  Level FlightAware
03:53AM 64.8310 -47.4790 98° East 513 590 35,000  Level FlightAware
03:54AM 64.8190 -47.3100 99° East 513 590 35,000  Level FlightAware
03:54AM 64.8080 -47.1420 99° East 513 590 35,000  Level FlightAware
03:55AM 64.7960 -46.9730 99° East 513 590 35,000  Level FlightAware
03:56AM 64.7850 -46.8050 99° East 513 590 35,000  Level FlightAware
03:56AM 64.7740 -46.6360 99° East 513 590 35,000  Level FlightAware
03:57AM 64.7620 -46.4680 99° East 513 590 35,000  Level FlightAware
03:57AM 64.7510 -46.3000 99° East 513 590 35,000  Level FlightAware
04:00AM 64.6719 -45.6233 105° East  Level FlightAware Approximate
04:01AM 64.6334 -45.3049 106° East  Level FlightAware Approximate
04:02AM 64.5943 -44.9875 106° East  Level FlightAware Approximate
04:03AM 64.5598 -44.6670 103° East  Level FlightAware Approximate
04:04AM 64.5268 -44.3466 103° East  Level FlightAware Approximate
04:05AM 64.4931 -44.0271 104° East  Level FlightAware Approximate
04:06AM 64.4587 -43.7083 104° East  Level FlightAware Approximate
04:07AM 64.4236 -43.3903 104° East  Level FlightAware Approximate
04:08AM 64.3878 -43.0732 104° East  Level FlightAware Approximate
04:09AM 64.3513 -42.7569 105° East  Level FlightAware Approximate
04:10AM 64.3142 -42.4414 105° East  Level FlightAware Approximate
04:11AM 64.2764 -42.1268 105° East  Level FlightAware Approximate
04:12AM 64.2379 -41.8130 106° East  Level FlightAware Approximate
04:13AM 64.1987 -41.5002 106° East  Level FlightAware Approximate
04:14AM 64.1589 -41.1882 106° East  Level FlightAware Approximate
04:15AM 64.1184 -40.8771 106° East  Level FlightAware Approximate
04:16AM 64.0773 -40.5670 107° East  Level FlightAware Approximate
04:17AM 64.0355 -40.2577 107° East  Level FlightAware Approximate
04:18AM 63.9967 -39.9475 98° East  Level FlightAware Approximate
04:19AM 63.9762 -39.6280 98° East  Level FlightAware Approximate
04:20AM 63.9550 -39.3090 98° East  Level FlightAware Approximate
04:21AM 63.9332 -38.9905 99° East  Level FlightAware Approximate
04:22AM 63.9106 -38.6726 99° East  Level FlightAware Approximate
04:23AM 63.8873 -38.3551 99° East  Level FlightAware Approximate
04:24AM 63.8634 -38.0381 100° East  Level FlightAware Approximate
04:25AM 63.8387 -37.7217 100° East  Level FlightAware Approximate
04:26AM 63.8134 -37.4059 100° East  Level FlightAware Approximate
04:27AM 63.7873 -37.0907 100° East  Level FlightAware Approximate
04:28AM 63.7606 -36.7760 101° East  Level FlightAware Approximate
04:29AM 63.7332 -36.4619 101° East  Level FlightAware Approximate
04:30AM 63.7051 -36.1485 101° East  Level FlightAware Approximate
04:31AM 63.6763 -35.8357 102° East  Level FlightAware Approximate
04:32AM 63.6469 -35.5235 102° East  Level FlightAware Approximate
04:33AM 63.6168 -35.2120 102° East  Level FlightAware Approximate
04:34AM 63.5860 -34.9011 102° East  Level FlightAware Approximate
04:35AM 63.5545 -34.5909 103° East  Level FlightAware Approximate
04:36AM 63.5224 -34.2814 103° East  Level FlightAware Approximate
04:37AM 63.4896 -33.9726 103° East  Level FlightAware Approximate
04:38AM 63.4561 -33.6646 104° East  Level FlightAware Approximate
04:39AM 63.4220 -33.3572 104° East  Level FlightAware Approximate
04:40AM 63.3872 -33.0506 104° East  Level FlightAware Approximate
04:41AM 63.3518 -32.7448 104° East  Level FlightAware Approximate
04:42AM 63.3157 -32.4397 105° East  Level FlightAware Approximate
04:43AM 63.2790 -32.1354 105° East  Level FlightAware Approximate
04:44AM 63.2416 -31.8318 105° East  Level FlightAware Approximate
04:45AM 63.2035 -31.5291 105° East  Level FlightAware Approximate
04:45AM 63.1190 -30.8730 106° East 530 610 35,000  Level FlightAware
04:45AM 63.0940 -30.6850 106° East 529 609 35,000  Level FlightAware
04:46AM 63.1649 -31.2271 106° East  Level FlightAware Approximate
04:46AM 63.0680 -30.4930 107° East 529 609 35,000  Level FlightAware
04:47AM 63.0360 -30.2630 107° East 531 611 35,000  Level FlightAware
04:48AM 63.0060 -30.0320 106° East 534 615 35,000  Level FlightAware
04:48AM 62.9920 -29.8640 100° East 538 619 35,000  Level FlightAware
04:49AM 62.9760 -29.6280 98° East 540 621 35,000  Level FlightAware
04:49AM 62.9610 -29.3990 98° East 541 623 35,000  Level FlightAware
04:50AM 62.9480 -29.2020 98° East 542 624 35,000  Level FlightAware
04:51AM 62.9360 -29.0220 98° East 542 624 35,000  Level FlightAware
04:51AM 62.9230 -28.8290 98° East 541 623 35,000  Level FlightAware
04:52AM 62.9090 -28.6350 99° East 541 623 35,000  Level FlightAware
04:52AM 62.8950 -28.4400 99° East 541 623 35,000  Level FlightAware
04:53AM 62.8820 -28.2620 99° East 541 623 35,000  Level FlightAware
04:54AM 62.8670 -28.0730 100° East 541 623 35,000  Level FlightAware
04:54AM 62.8520 -27.8740 99° East 542 624 35,000  Level FlightAware
04:55AM 62.8390 -27.7090 100° East 542 624 35,000  Level FlightAware
04:55AM 62.8240 -27.5180 100° East 542 624 35,000  Level FlightAware
04:56AM 62.8080 -27.3150 100° East 542 624 35,000  Level FlightAware
04:56AM 62.7930 -27.1390 100° East 541 623 35,000  Level FlightAware
04:57AM 62.7780 -26.9590 100° East 541 623 35,000  Level FlightAware
04:58AM 62.7620 -26.7670 100° East 544 626 35,000  Level FlightAware
04:58AM 62.7450 -26.5700 101° East 546 628 35,000  Level FlightAware
04:59AM 62.7280 -26.3770 101° East 549 632 35,000  Level FlightAware
04:59AM 62.7120 -26.2050 101° East 551 634 35,000  Level FlightAware
05:00AM 62.6930 -25.9980 101° East 552 635 35,000  Level FlightAware
05:01AM 62.6750 -25.8000 101° East 554 638 35,000  Level FlightAware
05:01AM 62.6570 -25.6040 101° East 553 636 35,000  Level FlightAware
05:02AM 62.6390 -25.4180 102° East 555 639 35,000  Level FlightAware
05:02AM 62.6200 -25.2220 102° East 557 641 35,000  Level FlightAware
05:03AM 62.6030 -25.0500 102° East 555 639 35,000  Level FlightAware
05:04AM 62.5820 -24.8440 102° East 555 639 35,000  Level FlightAware
05:04AM 62.5650 -24.6700 102° East 554 638 35,000  Level FlightAware
05:05AM 62.5450 -24.4760 103° East 553 636 35,000  Level FlightAware
05:05AM 62.5250 -24.2830 103° East 551 634 35,000  Level FlightAware
05:06AM 62.5040 -24.0910 103° East 551 634 35,000  Level FlightAware
05:06AM 62.4860 -23.9190 103° East 550 633 35,000  Level FlightAware
05:07AM 62.4650 -23.7270 103° East 551 634 35,000  Level FlightAware
05:08AM 62.4430 -23.5320 104° East 554 638 35,000  Level FlightAware
05:08AM 62.4220 -23.3430 103° East 551 634 35,000  Level FlightAware
05:09AM 62.4030 -23.1750 104° East 551 634 35,000  Level FlightAware
05:09AM 62.3810 -22.9800 104° East 554 638 35,000  Level FlightAware
05:10AM 62.3610 -22.8090 104° East 554 638 35,000  Level FlightAware
05:10AM 62.3380 -22.6170 104° East 554 638 35,000  Level FlightAware
05:11AM 62.3150 -22.4240 104° East 557 641 35,000  Level FlightAware
05:12AM 62.2920 -22.2310 104° East 559 643 35,000  Level FlightAware
05:12AM 62.2700 -22.0490 104° East 556 640 35,000  Level FlightAware
05:13AM 62.2470 -21.8680 105° East 555 639 35,000  Level FlightAware
05:13AM 62.2240 -21.6800 105° East 557 641 35,000  Level FlightAware
05:14AM 62.1990 -21.4880 106° East 560 644 35,000  Level FlightAware
05:15AM 62.1740 -21.2930 105° East 562 647 35,000  Level FlightAware
05:15AM 62.1520 -21.1230 105° East 562 647 35,000  Level FlightAware
05:16AM 62.1260 -20.9240 106° East 562 647 35,000  Level FlightAware
05:16AM 62.1030 -20.7510 106° East 561 646 35,000  Level FlightAware
05:17AM 62.0770 -20.5580 106° East 562 647 35,000  Level FlightAware
05:18AM 62.0520 -20.3720 106° East 563 648 35,000  Level FlightAware
05:18AM 62.0280 -20.2010 107° East 565 650 35,000  Level FlightAware
05:19AM 62.0010 -20.0090 107° East 564 649 35,000  Level FlightAware
05:19AM 61.9730 -19.8190 107° East 562 647 35,000  Level FlightAware
05:20AM 61.9430 -19.6300 109° East 560 644 35,000  Level FlightAware
05:20AM 61.9170 -19.4640 108° East 561 646 35,000  Level FlightAware
05:21AM 61.8880 -19.2790 108° East 563 648 35,000  Level FlightAware
05:22AM 61.8580 -19.0930 109° East 562 647 35,000  Level FlightAware
05:22AM 61.8260 -18.8970 109° East 562 647 35,000  Level FlightAware
05:23AM 61.7990 -18.7290 109° East 562 647 35,000  Level FlightAware
05:23AM 61.7680 -18.5400 109° East 563 648 35,000  Level FlightAware
05:24AM 61.7380 -18.3570 109° East 562 647 35,000  Level FlightAware
05:24AM 61.7070 -18.1770 110° East 560 644 35,000  Level FlightAware
05:25AM 61.6780 -18.0050 109° East 559 643 35,000  Level FlightAware
05:26AM 61.6470 -17.8200 109° East 556 640 35,000  Level FlightAware
05:26AM 61.6170 -17.6460 110° East 554 638 35,000  Level FlightAware
05:27AM 61.5830 -17.4570 111° Southeast 555 639 35,000  Level FlightAware
05:27AM 61.5570 -17.3040 110° East 556 640 35,000  Level FlightAware
05:28AM 61.5240 -17.1210 111° Southeast 557 641 35,000  Level FlightAware
05:29AM 61.4920 -16.9400 110° East 556 640 35,000  Level FlightAware
05:29AM 61.4610 -16.7700 111° Southeast 555 639 35,000  Level FlightAware
05:30AM 61.4280 -16.5880 111° Southeast 555 639 35,000  Level FlightAware
05:30AM 61.3950 -16.4080 111° Southeast 556 640 35,000  Level FlightAware
05:31AM 61.3620 -16.2320 111° Southeast 555 639 35,000  Level FlightAware
05:31AM 61.3310 -16.0700 112° Southeast 556 640 35,000  Level FlightAware
05:32AM 61.2980 -15.8950 111° Southeast 556 640 35,000  Level FlightAware
05:33AM 61.2660 -15.7280 112° Southeast 554 638 35,000  Level FlightAware
05:33AM 61.2320 -15.5490 111° Southeast 552 635 35,000  Level FlightAware
05:34AM 61.1970 -15.3720 112° Southeast 550 633 35,000  Level FlightAware
05:34AM 61.1640 -15.2000 112° Southeast 549 632 35,000  Level FlightAware
05:35AM 61.1320 -15.0400 112° Southeast 550 633 35,000  Level FlightAware
05:35AM 61.1050 -14.9030 112° Southeast 547 629 35,000  Level FlightAware
05:36AM 61.0620 -14.6880 112° Southeast 546 628 35,000  Level FlightAware
05:37AM 61.0310 -14.5400 113° Southeast 546 628 35,000  Level FlightAware
05:38AM 60.9840 -14.3030 112° Southeast 545 627 35,000  Level FlightAware
05:38AM 60.9540 -14.1510 112° Southeast 545 627 35,000  Level FlightAware
05:39AM 60.9250 -14.0040 112° Southeast 545 627 35,000  Level FlightAware
05:39AM 60.8960 -13.8530 111° Southeast 545 627 35,000  Level FlightAware
05:40AM 60.8670 -13.7060 112° Southeast 545 627 35,000  Level FlightAware
05:41AM 60.8360 -13.5510 112° Southeast 545 627 35,000  Level FlightAware
05:41AM 60.8070 -13.4040 112° Southeast 545 627 35,000  Level FlightAware
05:42AM 60.7780 -13.2580 112° Southeast 545 627 35,000  Level FlightAware
05:42AM 60.7490 -13.1110 112° Southeast 545 627 35,000  Level FlightAware
05:43AM 60.7200 -12.9650 112° Southeast 545 627 35,000  Level FlightAware
05:44AM 60.6910 -12.8190 112° Southeast 545 627 35,000  Level FlightAware
05:44AM 60.6620 -12.6680 111° Southeast 545 627 35,000  Level FlightAware
05:45AM 60.6330 -12.5230 112° Southeast 545 627 35,000  Level FlightAware
05:46AM 60.6040 -12.3770 112° Southeast 545 627 35,000  Level FlightAware
05:46AM 60.5750 -12.2310 112° Southeast 545 627 35,000  Level FlightAware
05:47AM 60.5460 -12.0860 112° Southeast 545 627 35,000  Level FlightAware
05:49AM 60.3520 -11.7508 139° Southeast  Level Estimated
05:50AM 60.2439 -11.5663 140° Southeast  Level Estimated
05:50AM 60.2270 -10.9200 140° Southeast 35,000  Level FlightAware
05:51AM 60.1630 -10.6560 116° Southeast 548 631 35,000  Level FlightAware
05:51AM 60.1280 -10.5120 116° Southeast 548 631 35,000  Level FlightAware
05:52AM 60.0940 -10.3720 116° Southeast 548 631 35,000  Level FlightAware
05:53AM 60.0430 -10.1720 117° Southeast 549 632 35,000  Level FlightAware
05:53AM 59.9900 -10.0040 122° Southeast 529 609 35,000  Level FlightAware
05:54AM 59.9380 -9.9070 137° Southeast 509 586 35,000 240 Level FlightAware
05:54AM 59.8640 -9.7940 143° Southeast 510 587 35,300 780 Climbing FlightAware
05:55AM 59.8040 -9.7050 143° Southeast 508 585 35,900 600 Climbing FlightAware
05:55AM 59.7390 -9.6090 143° Southeast 503 579 36,000 60 Climbing FlightAware
05:56AM 59.6790 -9.5200 143° Southeast 503 579 36,000  Level FlightAware
05:57AM 59.6110 -9.4200 143° Southeast 507 583 36,000  Level FlightAware
05:57AM 59.5140 -9.2800 144° Southeast 501 577 36,000  Level FlightAware
05:58AM 59.4480 -9.1830 143° Southeast 500 575 36,000  Level FlightAware
05:59AM 59.3820 -9.0880 144° Southeast 501 577 36,000  Level FlightAware
05:59AM 59.3129 -8.9896 144° Southeast 486 559 36,000  Level FlightAware UK
05:59AM 59.3130 -8.9880 144° Southeast 502 578 36,000  Level FlightAware
06:00AM 59.2510 -8.8990 144° Southeast 503 579 36,000  Level FlightAware
06:00AM 59.1790 -8.7970 144° Southeast 511 588 36,000  Level FlightAware
06:01AM 59.1100 -8.6990 144° Southeast 513 590 36,000  Level FlightAware
06:02AM 59.0276 -8.5833 144° Southeast 486 559 36,000  Level FlightAware UK
06:02AM 59.0440 -8.6060 144° Southeast 514 592 36,000  Level FlightAware
06:02AM 58.9702 -8.5016 144° Southeast 484 557 36,000  Level FlightAware UK
06:02AM 58.9770 -8.5120 144° Southeast 515 593 36,000  Level FlightAware
06:03AM 58.9040 -8.4100 144° Southeast 517 595 36,000  Level FlightAware
06:03AM 58.8230 -8.2970 144° Southeast 519 597 36,000  Level FlightAware
06:04AM 58.7450 -8.1900 145° Southeast 518 596 36,000  Level FlightAware
06:05AM 58.6760 -8.0950 144° Southeast 512 589 36,000  Level FlightAware
06:05AM 58.6082 -8.0030 144° Southeast 486 559 36,000  Level FlightAware UK
06:05AM 58.6220 -8.0220 144° Southeast 512 589 36,000  Level FlightAware
06:06AM 58.5493 -7.9240 144° Southeast 486 559 36,000  Level FlightAware UK
06:06AM 58.5390 -7.9090 144° Southeast 513 590 36,000  Level FlightAware
06:06AM 58.4690 -7.8160 145° Southeast 512 589 36,000  Level FlightAware
06:07AM 58.3959 -7.7188 145° Southeast 486 559 36,000  Level FlightAware UK
06:07AM 58.4000 -7.7240 145° Southeast 513 590 36,000  Level FlightAware
06:07AM 58.3360 -7.6408 145° Southeast 486 559 36,000  Level FlightAware UK
06:08AM 58.3320 -7.6360 145° Southeast 513 590 36,000  Level FlightAware
06:08AM 58.2610 -7.5440 146° Southeast 513 590 36,000  Level FlightAware
06:09AM 58.1930 -7.4570 146° Southeast 518 596 36,000  Level FlightAware
06:09AM 58.1230 -7.3680 146° Southeast 518 596 36,000  Level FlightAware
06:10AM 58.0520 -7.2800 147° Southeast 517 595 36,000  Level FlightAware
06:11AM 57.9710 -7.1800 147° Southeast 518 596 36,000  Level FlightAware
06:11AM 57.9662 -7.1741 147° Southeast 486 559 36,000  Level FlightAware UK
06:11AM 57.8821 -7.0714 147° Southeast 486 559 36,000  Level FlightAware UK
06:11AM 57.8940 -7.0860 147° Southeast 517 595 36,000  Level FlightAware
06:12AM 57.7820 -6.9520 147° Southeast 517 595 36,000  Level FlightAware
06:13AM 57.7009 -6.8561 147° Southeast 486 559 36,000  Level FlightAware UK
06:13AM 57.7000 -6.8550 147° Southeast 516 594 36,000  Level FlightAware
06:13AM 57.6440 -6.7890 148° Southeast 517 595 36,000  Level FlightAware
06:14AM 57.5580 -6.6900 148° Southeast 517 595 36,000  Level FlightAware
06:14AM 57.4946 -6.6160 148° Southeast 486 559 36,000  Level FlightAware UK
06:15AM 57.4890 -6.6100 148° Southeast 516 594 36,000  Level FlightAware
06:15AM 57.4150 -6.5220 147° Southeast 518 596 36,000  Level FlightAware
06:16AM 57.3480 -6.4400 147° Southeast 518 596 36,000  Level FlightAware
06:16AM 57.2930 -6.3700 145° Southeast 517 595 36,000  Level FlightAware
06:17AM 57.2080 -6.2630 146° Southeast 518 596 36,000  Level FlightAware
06:17AM 57.1490 -6.1880 145° Southeast 518 596 36,000  Level FlightAware
06:18AM 57.0760 -6.0960 145° Southeast 520 598 36,000  Level FlightAware
06:18AM 57.0664 -6.0831 145° Southeast 486 559 36,000  Level FlightAware UK
06:19AM 57.0071 -6.0085 145° Southeast 486 559 36,000  Level FlightAware UK
06:19AM 56.9970 -5.9960 145° Southeast 518 596 36,000  Level FlightAware
06:19AM 56.9359 -5.9194 145° Southeast 486 559 36,000  Level FlightAware UK
06:19AM 56.9390 -5.9230 145° Southeast 518 596 36,000  Level FlightAware
06:20AM 56.8710 -5.8390 145° Southeast 518 596 36,000  Level FlightAware
06:20AM 56.8649 -5.8307 145° Southeast 488 562 36,000  Level FlightAware UK
06:20AM 56.8058 -5.7573 145° Southeast 488 562 36,000  Level FlightAware UK
06:20AM 56.7950 -5.7450 145° Southeast 516 594 36,000  Level FlightAware
06:21AM 56.7280 -5.6610 145° Southeast 514 592 36,000  Level FlightAware
06:22AM 56.6470 -5.5620 145° Southeast 515 593 36,000  Level FlightAware
06:22AM 56.6406 -5.5541 145° Southeast 484 557 36,000  Level FlightAware UK
06:22AM 56.5815 -5.4818 145° Southeast 484 557 36,000  Level FlightAware UK
06:22AM 56.5730 -5.4720 145° Southeast 517 595 36,000  Level FlightAware
06:23AM 56.5130 -5.3990 146° Southeast 516 594 36,000  Level FlightAware
06:23AM 56.4420 -5.3120 146° Southeast 516 594 36,000  Level FlightAware
06:24AM 56.3710 -5.2270 146° Southeast 516 594 36,000  Level FlightAware
06:24AM 56.3677 -5.2228 146° Southeast 488 562 36,000  Level FlightAware UK
06:24AM 56.3080 -5.1510 146° Southeast 486 559 36,000  Level FlightAware UK
06:25AM 56.3000 -5.1420 146° Southeast 515 593 36,000  Level FlightAware
06:25AM 56.2368 -5.0661 146° Southeast 484 557 36,000  Level FlightAware UK
06:25AM 56.2310 -5.0590 146° Southeast 515 593 36,000  Level FlightAware
06:26AM 56.1610 -4.9750 146° Southeast 516 594 36,000  Level FlightAware
06:26AM 56.0910 -4.8930 147° Southeast 518 596 36,000  Level FlightAware
06:27AM 56.0210 -4.8100 146° Southeast 519 597 36,000  Level FlightAware
06:27AM 55.9620 -4.7410 147° Southeast 520 598 36,000  Level FlightAware
06:28AM 55.8780 -4.6420 147° Southeast 522 601 36,000  Level FlightAware
06:29AM 55.7980 -4.5500 147° Southeast 517 595 36,000 120 Level FlightAware
06:29AM 55.7250 -4.4650 147° Southeast 519 597 36,200 120 Climbing FlightAware
06:29AM 55.7210 -4.4605 147° Southeast 484 557 36,100 360 Descending FlightAware UK
06:30AM 55.6610 -4.3915 147° Southeast 480 552 36,400 660 Climbing FlightAware UK
06:30AM 55.6560 -4.3850 147° Southeast 516 594 36,500 660 Climbing FlightAware
06:30AM 55.5890 -4.3088 147° Southeast 480 552 36,800 540 Climbing FlightAware UK
06:30AM 55.5970 -4.3180 147° Southeast 514 592 36,800 300 Level FlightAware
06:31AM 55.5120 -4.2210 147° Southeast 519 597 37,000 120 Climbing FlightAware
06:32AM 55.4400 -4.1390 147° Southeast 521 600 37,000  Level FlightAware
06:32AM 55.3800 -4.0700 147° Southeast 520 598 37,000  Level FlightAware
06:33AM 55.3080 -3.9890 147° Southeast 520 598 37,000  Level FlightAware
06:33AM 55.2360 -3.9090 148° Southeast 521 600 37,000  Level FlightAware
06:34AM 55.1670 -3.8310 147° Southeast 522 601 37,000  Level FlightAware
06:35AM 55.0922 -3.7481 147° Southeast 484 557 37,000  Level FlightAware UK
06:35AM 55.0930 -3.7490 147° Southeast 522 601 37,000  Level FlightAware
06:35AM 55.0100 -3.6570 148° Southeast 521 600 37,000  Level FlightAware
06:36AM 54.9390 -3.5780 147° Southeast 521 600 37,000  Level FlightAware
06:36AM 54.8690 -3.5010 147° Southeast 523 602 37,000  Level FlightAware
06:36AM 54.8606 -3.4924 147° Southeast 482 555 37,000  Level FlightAware UK
06:37AM 54.7995 -3.4254 147° Southeast 482 555 37,000  Level FlightAware UK
06:37AM 54.7970 -3.4220 147° Southeast 524 603 37,000  Level FlightAware
06:38AM 54.7210 -3.3450 150° Southeast 521 600 37,000  Level FlightAware
06:38AM 54.6500 -3.2860 154° Southeast 518 596 37,000  Level FlightAware
06:39AM 54.5700 -3.2290 158° South 519 597 37,000  Level FlightAware
06:39AM 54.4980 -3.1820 159° South 517 595 37,000  Level FlightAware
06:40AM 54.4170 -3.1310 160° South 515 593 37,000  Level FlightAware
06:41AM 54.3320 -3.0780 160° South 514 592 37,000  Level FlightAware
06:41AM 54.2540 -3.0310 161° South 512 589 37,000  Level FlightAware
06:42AM 54.1770 -2.9840 160° South 511 588 37,000  Level FlightAware
06:42AM 54.1020 -2.9390 161° South 511 588 37,000  Level FlightAware
06:43AM 54.0050 -2.8810 161° South 510 587 37,000  Level FlightAware
06:43AM 53.9380 -2.8400 160° South 509 586 37,000  Level FlightAware
06:44AM 53.8450 -2.7840 160° South 509 586 37,000  Level FlightAware
06:45AM 53.7710 -2.7400 161° South 508 585 37,000  Level FlightAware
06:45AM 53.6972 -2.6957 160° South 507 583 37,000  Level FlightAware ADS-B
06:46AM 53.6013 -2.6386 161° South 508 585 37,000  Level FlightAware ADS-B
06:47AM 53.5001 -2.5787 161° South 482 555 37,000  Level FlightAware UK
06:47AM 53.4570 -2.5530 161° South 505 581 37,000  Level FlightAware
06:48AM 53.3870 -2.5120 161° South 505 581 37,000  Level FlightAware
06:48AM 53.3060 -2.4650 161° South 504 580 37,000  Level FlightAware
06:49AM 53.2661 -2.4412 160° South 504 580 37,000  Level FlightAware ADS-B
06:49AM 53.1560 -2.3770 161° South 503 579 37,000  Level FlightAware
06:50AM 53.1333 -2.3640 161° South 503 579 37,000 -960 Level FlightAware ADS-B
06:50AM 53.0560 -2.3175 160° South 505 581 36,300 -1,680 Descending FlightAware ADS-B
06:51AM 52.9792 -2.2462 160° South 486 559 35,000 -2,400 Descending FlightAware UK
06:51AM 52.9525 -2.2155 160° South 505 581 34,300 -2,880 Descending FlightAware ADS-B
06:51AM 52.9385 -2.1990 145° Southeast 517 595 34,000 -2,940 Descending FlightAware ADS-B
06:52AM 52.8640 -2.1120 145° Southeast 520 598 32,100 -2,880 Descending FlightAware
06:52AM 52.7940 -2.0300 145° Southeast 518 596 30,400 -2,640 Descending FlightAware
06:53AM 52.7236 -1.9503 146° Southeast 508 585 29,000 -2,340 Descending FlightAware ADS-B
06:53AM 52.6616 -1.8800 145° Southeast 500 575 27,800 -2,160 Descending FlightAware ADS-B
06:54AM 52.5977 -1.8076 145° Southeast 493 567 26,600 -2,160 Descending FlightAware ADS-B
06:55AM 52.5407 -1.7438 146° Southeast 482 555 25,500 -2,220 Descending FlightAware ADS-B
06:55AM 52.4848 -1.6808 146° Southeast 474 545 24,400 -2,100 Descending FlightAware ADS-B
06:56AM 52.4270 -1.6161 146° Southeast 465 535 23,300 -2,040 Descending FlightAware ADS-B
06:56AM 52.3738 -1.5585 147° Southeast 458 527 22,300 -1,980 Descending FlightAware ADS-B
06:57AM 52.3213 -1.5010 146° Southeast 451 519 21,300 -2,040 Descending FlightAware ADS-B
06:57AM 52.2691 -1.4434 146° Southeast 446 513 20,300 -1,740 Descending FlightAware ADS-B
06:58AM 52.2180 -1.3876 146° Southeast 433 498 19,600 -1,500 Descending FlightAware ADS-B
06:58AM 52.1683 -1.3335 146° Southeast 424 488 18,800 -1,800 Descending FlightAware ADS-B
06:59AM 52.1194 -1.2797 146° Southeast 418 481 17,800 -1,920 Descending FlightAware ADS-B
06:59AM 52.0705 -1.2261 146° Southeast 411 473 16,900 -1,800 Descending FlightAware ADS-B
07:00AM 52.0221 -1.1737 146° Southeast 406 467 16,000 -1,920 Descending FlightAware ADS-B
07:00AM 51.9747 -1.1233 147° Southeast 398 458 15,000 -1,680 Descending FlightAware ADS-B
07:01AM 51.9284 -1.0725 146° Southeast 380 437 14,300 -1,260 Descending FlightAware ADS-B
07:01AM 51.8855 -1.0263 146° Southeast 349 402 13,700 -1,320 Descending FlightAware ADS-B
07:01AM 51.8767 -1.0137 139° Southeast 342 394 13,500 -1,800 Descending FlightAware ADS-B
07:02AM 51.8664 -0.9957 133° Southeast 331 381 13,200 -1,800 Descending FlightAware ADS-B
07:02AM 51.8605 -0.9831 127° Southeast 329 379 13,000 -1,740 Descending FlightAware ADS-B
07:02AM 51.8547 -0.9666 120° Southeast 326 375 12,800 -1,920 Descending FlightAware ADS-B
07:02AM 51.8368 -0.9002 114° Southeast 320 368 11,800 -2,100 Descending FlightAware ADS-B
07:03AM 51.8193 -0.8403 115° Southeast 319 367 10,800 -2,040 Descending FlightAware ADS-B
07:03AM 51.8024 -0.7873 117° Southeast 316 364 10,000 -1,920 Descending FlightAware ADS-B
07:03AM 51.7918 -0.7549 118° Southeast 315 362 9,500 -2,160 Descending FlightAware ADS-B
07:04AM 51.7813 -0.7238 119° Southeast 313 360 8,900 -2,160 Descending FlightAware ADS-B
07:04AM 51.7705 -0.6919 119° Southeast 312 359 8,400 -1,620 Descending FlightAware ADS-B
07:04AM 51.7600 -0.6603 118° Southeast 314 361 8,100 -780 Descending FlightAware ADS-B
07:04AM 51.7492 -0.6261 117° Southeast 305 351 8,000 -240 Descending FlightAware ADS-B
07:05AM 51.7401 -0.5961 116° Southeast 291 335 8,000  Level FlightAware ADS-B
07:05AM 51.7313 -0.5672 116° Southeast 283 326 8,000  Level FlightAware ADS-B
07:05AM 51.7238 -0.5425 116° Southeast 280 322 8,000  Level FlightAware ADS-B
07:05AM 51.7142 -0.5130 118° Southeast 284 327 8,000  Level FlightAware ADS-B
07:06AM 51.7047 -0.4839 118° Southeast 283 326 8,000  Level FlightAware ADS-B
07:06AM 51.6952 -0.4545 117° Southeast 283 326 8,000  Level FlightAware ADS-B
07:06AM 51.6861 -0.4261 117° Southeast 282 325 8,000  Level FlightAware ADS-B
07:06AM 51.6759 -0.3950 118° Southeast 281 323 8,000  Level FlightAware ADS-B
07:07AM 51.6659 -0.3646 118° Southeast 283 326 8,000  Level FlightAware ADS-B
07:07AM 51.6559 -0.3342 118° Southeast 282 325 8,000 -420 Level FlightAware ADS-B
07:07AM 51.6468 -0.3064 118° Southeast 282 325 7,800 -840 Descending FlightAware ADS-B
07:08AM 51.6375 -0.2784 118° Southeast 280 322 7,600 -1,020 Descending FlightAware ADS-B
07:08AM 51.6280 -0.2505 119° Southeast 277 319 7,300 -1,020 Descending FlightAware ADS-B
07:08AM 51.6183 -0.2220 119° Southeast 276 318 7,100 -960 Descending FlightAware ADS-B
07:08AM 51.6087 -0.1939 119° Southeast 273 314 6,800 -1,200 Descending FlightAware ADS-B
07:09AM 51.5994 -0.1666 119° Southeast 272 313 6,500 -1,200 Descending FlightAware ADS-B
07:09AM 51.5899 -0.1388 119° Southeast 265 305 6,200 -780 Descending FlightAware ADS-B
07:09AM 51.5809 -0.1129 119° Southeast 246 283 6,100 -600 Descending FlightAware ADS-B
07:09AM 51.5722 -0.0883 120° Southeast 234 269 5,900 -1,140 Descending FlightAware ADS-B
07:09AM 51.5689 -0.0796 121° Southeast 230 265 5,700 -1,440 Descending FlightAware ADS-B
07:10AM 51.5637 -0.0702 132° Southeast 227 261 5,600 -960 Descending FlightAware ADS-B
07:10AM 51.5587 -0.0646 145° Southeast 221 254 5,500 -1,020 Descending FlightAware ADS-B
07:10AM 51.5533 -0.0610 158° South 218 251 5,400 -1,020 Descending FlightAware ADS-B
07:10AM 51.5476 -0.0590 168° South 215 247 5,300 -1,500 Descending FlightAware ADS-B
07:10AM 51.5418 -0.0578 172° South 213 245 5,100 -1,680 Descending FlightAware ADS-B
07:10AM 51.5265 -0.0555 175° South 212 244 4,700 -1,380 Descending FlightAware ADS-B
07:11AM 51.5117 -0.0536 175° South 212 244 4,400 -1,260 Descending FlightAware ADS-B
07:11AM 51.5032 -0.0540 182° South 209 241 4,200 -1,320 Descending FlightAware ADS-B
07:11AM 51.4939 -0.0600 202° Southwest 204 235 4,000 -1,140 Descending FlightAware ADS-B
07:11AM 51.4900 -0.0654 221° Southwest 200 230 3,900 -780 Descending FlightAware ADS-B
07:11AM 51.4846 -0.0769 233° Southwest 199 229 3,800 -720 Descending FlightAware ADS-B
07:11AM 51.4772 -0.0969 239° Southwest 199 229 3,600 -600 Descending FlightAware ADS-B
07:12AM 51.4699 -0.1163 239° Southwest 194 223 3,500 -480 Descending FlightAware ADS-B
07:12AM 51.4669 -0.1281 248° West 191 220 3,400 -480 Descending FlightAware ADS-B
07:12AM 51.4660 -0.1353 259° West 192 221 3,400 -540 Level FlightAware ADS-B
07:12AM 51.4655 -0.1445 265° West 193 222 3,300 -1,500 Descending FlightAware ADS-B
07:12AM 51.4655 -0.1525 270° West 195 224 3,100 -1,200 Descending FlightAware ADS-B
07:12AM 51.4656 -0.1735 270° West 182 209 2,900 -960 Descending FlightAware ADS-B
07:13AM 51.4655 -0.1949 270° West 167 192 2,600 -1,020 Descending FlightAware ADS-B
07:13AM 51.4654 -0.2176 270° West 164 189 2,300 -900 Descending FlightAware ADS-B
07:13AM 51.4654 -0.2429 270° West 163 188 2,000 -900 Descending FlightAware ADS-B
07:14AM 51.4653 -0.2923 270° West 170 196 1,400 -900 Descending FlightAware UK
07:14AM 51.4650 -0.2990 270° West 167 192 1,300 -840 Descending FlightAware
07:14AM 51.4650 -0.3260 270° West 159 183 1,000 -780 Descending FlightAware (KMIA)
07:15AM 51.4650 -0.3450 270° West 148 170 800 -660 Descending FlightAware
07:15AM 51.4650 -0.3670 270° West 146 168 600 -840 Descending FlightAware
07:15AM 51.4650 -0.3970 270° West 146 168 200 -960 Descending FlightAware
07:16AM 51.4650 -0.4130 270° West 151 174 -780 Descending FlightAware
07:16AM 51.4650 -0.4310 270° West 149 171  Level FlightAware
07:17AM 51.4650 -0.4570 270° West 149 171  Level FlightAware